sensor_id;sensor_type;location;lat;lon;timestamp;P1;durP1;ratioP1;P2;durP2;ratioP2
9138;SDS011;4604;48.616;9.548;2023-02-28T00:00:49;4.43;;;2.90;;
9138;SDS011;4604;48.616;9.548;2023-02-28T00:03:16;4.17;;;2.80;;
9138;SDS011;4604;48.616;9.548;2023-02-28T00:05:43;3.63;;;2.80;;
9138;SDS011;4604;48.616;9.548;2023-02-28T00:08:10;6.67;;;3.50;;
9138;SDS011;4604;48.616;9.548;2023-02-28T00:10:38;2.97;;;2.63;;
9138;SDS011;4604;48.616;9.548;2023-02-28T00:13:05;4.80;;;3.10;;
9138;SDS011;4604;48.616;9.548;2023-02-28T00:15:33;6.67;;;3.27;;
9138;SDS011;4604;48.616;9.548;2023-02-28T00:18:00;3.83;;;2.70;;
9138;SDS011;4604;48.616;9.548;2023-02-28T00:20:27;4.10;;;3.03;;
9138;SDS011;4604;48.616;9.548;2023-02-28T00:22:54;5.77;;;3.27;;
9138;SDS011;4604;48.616;9.548;2023-02-28T00:25:22;3.50;;;2.80;;
9138;SDS011;4604;48.616;9.548;2023-02-28T00:27:50;5.30;;;3.27;;
9138;SDS011;4604;48.616;9.548;2023-02-28T00:30:18;4.90;;;3.07;;
9138;SDS011;4604;48.616;9.548;2023-02-28T00:32:47;5.00;;;3.03;;
9138;SDS011;4604;48.616;9.548;2023-02-28T00:35:14;5.10;;;3.10;;
9138;SDS011;4604;48.616;9.548;2023-02-28T00:37:41;5.60;;;2.87;;
9138;SDS011;4604;48.616;9.548;2023-02-28T00:40:08;5.90;;;3.00;;
9138;SDS011;4604;48.616;9.548;2023-02-28T00:42:37;5.83;;;3.33;;
9138;SDS011;4604;48.616;9.548;2023-02-28T00:45:03;4.67;;;3.00;;
9138;SDS011;4604;48.616;9.548;2023-02-28T00:47:31;5.30;;;3.10;;
9138;SDS011;4604;48.616;9.548;2023-02-28T00:49:59;10.10;;;3.33;;
9138;SDS011;4604;48.616;9.548;2023-02-28T00:52:26;4.97;;;3.20;;
9138;SDS011;4604;48.616;9.548;2023-02-28T00:54:53;4.10;;;3.03;;
9138;SDS011;4604;48.616;9.548;2023-02-28T00:57:19;4.07;;;2.73;;
9138;SDS011;4604;48.616;9.548;2023-02-28T00:59:46;3.87;;;2.90;;
9138;SDS011;4604;48.616;9.548;2023-02-28T01:02:13;4.00;;;2.90;;
9138;SDS011;4604;48.616;9.548;2023-02-28T01:04:39;5.30;;;3.50;;
9138;SDS011;4604;48.616;9.548;2023-02-28T01:07:07;5.73;;;3.30;;
9138;SDS011;4604;48.616;9.548;2023-02-28T01:09:35;5.50;;;3.30;;
9138;SDS011;4604;48.616;9.548;2023-02-28T01:12:01;6.60;;;3.33;;
9138;SDS011;4604;48.616;9.548;2023-02-28T01:14:28;7.17;;;3.50;;
9138;SDS011;4604;48.616;9.548;2023-02-28T01:16:55;5.23;;;3.27;;
9138;SDS011;4604;48.616;9.548;2023-02-28T01:19:22;5.53;;;3.20;;
9138;SDS011;4604;48.616;9.548;2023-02-28T01:21:48;4.73;;;3.40;;
9138;SDS011;4604;48.616;9.548;2023-02-28T01:24:16;6.03;;;3.53;;
9138;SDS011;4604;48.616;9.548;2023-02-28T01:26:43;5.87;;;3.60;;
9138;SDS011;4604;48.616;9.548;2023-02-28T01:29:09;5.13;;;3.30;;
9138;SDS011;4604;48.616;9.548;2023-02-28T01:31:36;5.40;;;3.27;;
9138;SDS011;4604;48.616;9.548;2023-02-28T01:34:03;4.53;;;3.20;;
9138;SDS011;4604;48.616;9.548;2023-02-28T01:36:29;6.20;;;3.67;;
9138;SDS011;4604;48.616;9.548;2023-02-28T01:38:56;6.53;;;3.83;;
9138;SDS011;4604;48.616;9.548;2023-02-28T01:41:26;5.67;;;3.77;;
9138;SDS011;4604;48.616;9.548;2023-02-28T01:43:55;4.60;;;3.30;;
9138;SDS011;4604;48.616;9.548;2023-02-28T01:46:24;4.27;;;3.23;;
9138;SDS011;4604;48.616;9.548;2023-02-28T01:48:51;6.73;;;3.53;;
9138;SDS011;4604;48.616;9.548;2023-02-28T01:51:26;4.47;;;3.27;;
9138;SDS011;4604;48.616;9.548;2023-02-28T01:53:56;4.97;;;3.20;;
9138;SDS011;4604;48.616;9.548;2023-02-28T01:56:28;4.90;;;3.30;;
9138;SDS011;4604;48.616;9.548;2023-02-28T01:58:59;5.20;;;3.23;;
9138;SDS011;4604;48.616;9.548;2023-02-28T02:01:26;6.33;;;3.53;;
9138;SDS011;4604;48.616;9.548;2023-02-28T02:03:54;4.10;;;2.83;;
9138;SDS011;4604;48.616;9.548;2023-02-28T02:06:24;4.90;;;3.63;;
9138;SDS011;4604;48.616;9.548;2023-02-28T02:08:54;5.70;;;3.73;;
9138;SDS011;4604;48.616;9.548;2023-02-28T02:11:22;6.40;;;3.27;;
9138;SDS011;4604;48.616;9.548;2023-02-28T02:13:58;4.97;;;3.33;;
9138;SDS011;4604;48.616;9.548;2023-02-28T02:16:41;5.13;;;3.30;;
9138;SDS011;4604;48.616;9.548;2023-02-28T02:22:27;4.90;;;3.33;;
9138;SDS011;4604;48.616;9.548;2023-02-28T02:25:18;4.50;;;3.23;;
9138;SDS011;4604;48.616;9.548;2023-02-28T02:37:08;6.40;;;2.80;;
9138;SDS011;4604;48.616;9.548;2023-02-28T02:39:44;5.27;;;3.63;;
9138;SDS011;4604;48.616;9.548;2023-02-28T02:42:18;6.60;;;3.73;;
9138;SDS011;4604;48.616;9.548;2023-02-28T02:44:52;5.27;;;3.37;;
9138;SDS011;4604;48.616;9.548;2023-02-28T02:47:26;5.30;;;3.50;;
9138;SDS011;4604;48.616;9.548;2023-02-28T02:49:57;5.73;;;3.00;;
9138;SDS011;4604;48.616;9.548;2023-02-28T02:52:28;4.90;;;3.50;;
9138;SDS011;4604;48.616;9.548;2023-02-28T02:55:01;7.10;;;3.60;;
9138;SDS011;4604;48.616;9.548;2023-02-28T02:57:30;5.37;;;3.50;;
9138;SDS011;4604;48.616;9.548;2023-02-28T03:00:00;5.93;;;3.47;;
9138;SDS011;4604;48.616;9.548;2023-02-28T03:02:30;5.13;;;3.70;;
9138;SDS011;4604;48.616;9.548;2023-02-28T03:05:01;5.93;;;3.63;;
9138;SDS011;4604;48.616;9.548;2023-02-28T03:07:30;6.10;;;4.00;;
9138;SDS011;4604;48.616;9.548;2023-02-28T03:09:57;6.23;;;3.83;;
9138;SDS011;4604;48.616;9.548;2023-02-28T03:12:26;5.27;;;3.50;;
9138;SDS011;4604;48.616;9.548;2023-02-28T03:15:01;5.47;;;3.90;;
9138;SDS011;4604;48.616;9.548;2023-02-28T03:17:40;5.20;;;3.40;;
9138;SDS011;4604;48.616;9.548;2023-02-28T03:20:22;10.03;;;4.17;;
9138;SDS011;4604;48.616;9.548;2023-02-28T03:22:59;6.33;;;3.83;;
9138;SDS011;4604;48.616;9.548;2023-02-28T03:25:37;9.60;;;3.90;;
9138;SDS011;4604;48.616;9.548;2023-02-28T03:28:13;6.20;;;3.73;;
9138;SDS011;4604;48.616;9.548;2023-02-28T03:30:45;7.33;;;4.13;;
9138;SDS011;4604;48.616;9.548;2023-02-28T03:33:19;6.53;;;4.10;;
9138;SDS011;4604;48.616;9.548;2023-02-28T03:35:51;5.30;;;3.70;;
9138;SDS011;4604;48.616;9.548;2023-02-28T03:38:21;4.97;;;3.70;;
9138;SDS011;4604;48.616;9.548;2023-02-28T03:40:57;7.93;;;4.00;;
9138;SDS011;4604;48.616;9.548;2023-02-28T03:43:27;5.90;;;3.83;;
9138;SDS011;4604;48.616;9.548;2023-02-28T03:45:56;5.07;;;3.70;;
9138;SDS011;4604;48.616;9.548;2023-02-28T03:48:27;5.70;;;3.73;;
9138;SDS011;4604;48.616;9.548;2023-02-28T03:51:02;5.50;;;3.93;;
9138;SDS011;4604;48.616;9.548;2023-02-28T03:53:33;5.17;;;3.87;;
9138;SDS011;4604;48.616;9.548;2023-02-28T03:56:03;5.77;;;3.73;;
9138;SDS011;4604;48.616;9.548;2023-02-28T03:58:36;8.00;;;4.07;;
9138;SDS011;4604;48.616;9.548;2023-02-28T04:01:07;6.50;;;4.13;;
9138;SDS011;4604;48.616;9.548;2023-02-28T04:03:38;6.93;;;4.17;;
9138;SDS011;4604;48.616;9.548;2023-02-28T04:06:07;6.07;;;4.17;;
9138;SDS011;4604;48.616;9.548;2023-02-28T04:08:39;6.70;;;4.50;;
9138;SDS011;4604;48.616;9.548;2023-02-28T04:11:06;6.77;;;4.30;;
9138;SDS011;4604;48.616;9.548;2023-02-28T04:13:42;8.10;;;4.47;;
9138;SDS011;4604;48.616;9.548;2023-02-28T04:16:09;8.93;;;4.87;;
9138;SDS011;4604;48.616;9.548;2023-02-28T04:18:37;6.50;;;4.10;;
9138;SDS011;4604;48.616;9.548;2023-02-28T04:21:04;7.23;;;4.20;;
9138;SDS011;4604;48.616;9.548;2023-02-28T04:23:32;5.77;;;4.63;;
9138;SDS011;4604;48.616;9.548;2023-02-28T04:25:59;5.50;;;4.07;;
9138;SDS011;4604;48.616;9.548;2023-02-28T04:28:25;5.87;;;4.53;;
9138;SDS011;4604;48.616;9.548;2023-02-28T04:30:55;6.87;;;4.43;;
9138;SDS011;4604;48.616;9.548;2023-02-28T04:33:22;8.83;;;4.90;;
9138;SDS011;4604;48.616;9.548;2023-02-28T04:35:48;6.70;;;4.50;;
9138;SDS011;4604;48.616;9.548;2023-02-28T04:38:24;7.10;;;3.63;;
9138;SDS011;4604;48.616;9.548;2023-02-28T04:40:52;8.43;;;5.23;;
9138;SDS011;4604;48.616;9.548;2023-02-28T04:43:19;8.70;;;4.50;;
9138;SDS011;4604;48.616;9.548;2023-02-28T04:45:45;7.47;;;4.50;;
9138;SDS011;4604;48.616;9.548;2023-02-28T04:48:12;6.53;;;4.37;;
9138;SDS011;4604;48.616;9.548;2023-02-28T04:50:38;9.73;;;4.93;;
9138;SDS011;4604;48.616;9.548;2023-02-28T04:53:05;8.40;;;5.17;;
9138;SDS011;4604;48.616;9.548;2023-02-28T04:55:32;6.97;;;4.13;;
9138;SDS011;4604;48.616;9.548;2023-02-28T04:58:00;8.63;;;4.73;;
9138;SDS011;4604;48.616;9.548;2023-02-28T05:00:26;7.10;;;4.43;;
9138;SDS011;4604;48.616;9.548;2023-02-28T05:02:53;7.77;;;5.17;;
9138;SDS011;4604;48.616;9.548;2023-02-28T05:05:20;7.43;;;4.90;;
9138;SDS011;4604;48.616;9.548;2023-02-28T05:07:47;9.20;;;4.70;;
9138;SDS011;4604;48.616;9.548;2023-02-28T05:10:13;9.03;;;5.10;;
9138;SDS011;4604;48.616;9.548;2023-02-28T05:12:40;7.80;;;5.10;;
9138;SDS011;4604;48.616;9.548;2023-02-28T05:15:09;7.47;;;4.97;;
9138;SDS011;4604;48.616;9.548;2023-02-28T05:17:39;8.57;;;5.03;;
9138;SDS011;4604;48.616;9.548;2023-02-28T05:20:06;10.30;;;5.10;;
9138;SDS011;4604;48.616;9.548;2023-02-28T05:22:35;8.00;;;4.80;;
9138;SDS011;4604;48.616;9.548;2023-02-28T05:25:02;10.27;;;4.93;;
9138;SDS011;4604;48.616;9.548;2023-02-28T05:27:29;8.17;;;4.93;;
9138;SDS011;4604;48.616;9.548;2023-02-28T05:29:56;9.00;;;4.90;;
9138;SDS011;4604;48.616;9.548;2023-02-28T05:32:25;9.93;;;5.07;;
9138;SDS011;4604;48.616;9.548;2023-02-28T05:34:51;8.57;;;5.17;;
9138;SDS011;4604;48.616;9.548;2023-02-28T05:37:18;6.40;;;4.73;;
9138;SDS011;4604;48.616;9.548;2023-02-28T05:39:45;10.00;;;5.50;;
9138;SDS011;4604;48.616;9.548;2023-02-28T05:42:11;8.20;;;5.30;;
9138;SDS011;4604;48.616;9.548;2023-02-28T05:44:38;7.37;;;4.60;;
9138;SDS011;4604;48.616;9.548;2023-02-28T05:47:04;8.57;;;4.50;;
9138;SDS011;4604;48.616;9.548;2023-02-28T05:49:32;8.23;;;5.20;;
9138;SDS011;4604;48.616;9.548;2023-02-28T05:51:59;6.73;;;4.63;;
9138;SDS011;4604;48.616;9.548;2023-02-28T05:54:26;11.20;;;4.57;;
9138;SDS011;4604;48.616;9.548;2023-02-28T05:56:52;9.17;;;5.27;;
9138;SDS011;4604;48.616;9.548;2023-02-28T05:59:19;8.30;;;5.30;;
9138;SDS011;4604;48.616;9.548;2023-02-28T06:01:45;9.07;;;5.50;;
9138;SDS011;4604;48.616;9.548;2023-02-28T06:04:14;10.63;;;5.30;;
9138;SDS011;4604;48.616;9.548;2023-02-28T06:06:45;7.57;;;4.90;;
9138;SDS011;4604;48.616;9.548;2023-02-28T06:09:12;8.97;;;5.17;;
9138;SDS011;4604;48.616;9.548;2023-02-28T06:11:39;10.43;;;5.77;;
9138;SDS011;4604;48.616;9.548;2023-02-28T06:14:07;10.07;;;5.40;;
9138;SDS011;4604;48.616;9.548;2023-02-28T06:16:39;9.30;;;5.37;;
9138;SDS011;4604;48.616;9.548;2023-02-28T06:19:06;8.77;;;5.07;;
9138;SDS011;4604;48.616;9.548;2023-02-28T06:21:33;10.63;;;5.50;;
9138;SDS011;4604;48.616;9.548;2023-02-28T06:24:01;9.27;;;5.20;;
9138;SDS011;4604;48.616;9.548;2023-02-28T06:26:28;9.93;;;5.27;;
9138;SDS011;4604;48.616;9.548;2023-02-28T06:28:55;9.43;;;5.30;;
9138;SDS011;4604;48.616;9.548;2023-02-28T06:31:22;12.07;;;5.83;;
9138;SDS011;4604;48.616;9.548;2023-02-28T06:33:50;11.17;;;5.50;;
9138;SDS011;4604;48.616;9.548;2023-02-28T06:36:17;13.60;;;5.73;;
9138;SDS011;4604;48.616;9.548;2023-02-28T06:38:44;11.47;;;5.77;;
9138;SDS011;4604;48.616;9.548;2023-02-28T06:41:17;9.03;;;5.33;;
9138;SDS011;4604;48.616;9.548;2023-02-28T06:43:44;10.43;;;5.87;;
9138;SDS011;4604;48.616;9.548;2023-02-28T06:46:12;7.70;;;5.13;;
9138;SDS011;4604;48.616;9.548;2023-02-28T06:48:39;9.97;;;5.83;;
9138;SDS011;4604;48.616;9.548;2023-02-28T06:51:07;9.60;;;5.40;;
9138;SDS011;4604;48.616;9.548;2023-02-28T06:53:35;9.03;;;6.03;;
9138;SDS011;4604;48.616;9.548;2023-02-28T06:56:04;10.27;;;6.27;;
9138;SDS011;4604;48.616;9.548;2023-02-28T06:58:33;11.80;;;6.50;;
9138;SDS011;4604;48.616;9.548;2023-02-28T07:00:59;9.17;;;5.57;;
9138;SDS011;4604;48.616;9.548;2023-02-28T07:03:27;9.93;;;5.87;;
9138;SDS011;4604;48.616;9.548;2023-02-28T07:05:54;11.80;;;6.20;;
9138;SDS011;4604;48.616;9.548;2023-02-28T07:08:21;9.60;;;6.00;;
9138;SDS011;4604;48.616;9.548;2023-02-28T07:10:51;13.23;;;6.67;;
9138;SDS011;4604;48.616;9.548;2023-02-28T07:13:18;10.70;;;6.00;;
9138;SDS011;4604;48.616;9.548;2023-02-28T07:15:52;10.90;;;6.27;;
9138;SDS011;4604;48.616;9.548;2023-02-28T07:18:19;12.43;;;6.37;;
9138;SDS011;4604;48.616;9.548;2023-02-28T07:20:46;12.90;;;6.80;;
9138;SDS011;4604;48.616;9.548;2023-02-28T07:23:12;10.07;;;6.97;;
9138;SDS011;4604;48.616;9.548;2023-02-28T07:25:39;10.37;;;6.13;;
9138;SDS011;4604;48.616;9.548;2023-02-28T07:28:05;12.00;;;6.97;;
9138;SDS011;4604;48.616;9.548;2023-02-28T07:30:32;12.63;;;6.87;;
9138;SDS011;4604;48.616;9.548;2023-02-28T07:33:00;9.90;;;6.07;;
9138;SDS011;4604;48.616;9.548;2023-02-28T07:35:27;10.47;;;6.70;;
9138;SDS011;4604;48.616;9.548;2023-02-28T07:37:53;10.87;;;6.33;;
9138;SDS011;4604;48.616;9.548;2023-02-28T07:40:20;13.33;;;6.90;;
9138;SDS011;4604;48.616;9.548;2023-02-28T07:42:46;12.03;;;6.60;;
9138;SDS011;4604;48.616;9.548;2023-02-28T07:45:13;12.00;;;6.77;;
9138;SDS011;4604;48.616;9.548;2023-02-28T07:47:40;14.07;;;5.73;;
9138;SDS011;4604;48.616;9.548;2023-02-28T07:50:10;12.70;;;6.60;;
9138;SDS011;4604;48.616;9.548;2023-02-28T07:52:39;9.87;;;6.30;;
9138;SDS011;4604;48.616;9.548;2023-02-28T07:55:07;11.30;;;6.40;;
9138;SDS011;4604;48.616;9.548;2023-02-28T07:57:35;8.47;;;5.60;;
9138;SDS011;4604;48.616;9.548;2023-02-28T08:00:02;10.47;;;6.33;;
9138;SDS011;4604;48.616;9.548;2023-02-28T08:02:29;12.97;;;6.47;;
9138;SDS011;4604;48.616;9.548;2023-02-28T08:04:56;11.67;;;6.30;;
9138;SDS011;4604;48.616;9.548;2023-02-28T08:07:24;12.57;;;6.60;;
9138;SDS011;4604;48.616;9.548;2023-02-28T08:09:51;14.30;;;6.93;;
9138;SDS011;4604;48.616;9.548;2023-02-28T08:12:17;11.97;;;6.53;;
9138;SDS011;4604;48.616;9.548;2023-02-28T08:14:44;11.80;;;6.97;;
9138;SDS011;4604;48.616;9.548;2023-02-28T08:17:10;10.80;;;6.33;;
9138;SDS011;4604;48.616;9.548;2023-02-28T08:19:37;11.53;;;6.10;;
9138;SDS011;4604;48.616;9.548;2023-02-28T08:22:05;10.53;;;6.50;;
9138;SDS011;4604;48.616;9.548;2023-02-28T08:24:33;14.50;;;6.63;;
9138;SDS011;4604;48.616;9.548;2023-02-28T08:26:59;11.53;;;6.83;;
9138;SDS011;4604;48.616;9.548;2023-02-28T08:29:26;11.40;;;6.57;;
9138;SDS011;4604;48.616;9.548;2023-02-28T08:31:52;12.00;;;6.87;;
9138;SDS011;4604;48.616;9.548;2023-02-28T08:34:19;13.03;;;7.00;;
9138;SDS011;4604;48.616;9.548;2023-02-28T08:36:46;14.60;;;7.07;;
9138;SDS011;4604;48.616;9.548;2023-02-28T08:39:12;13.67;;;6.70;;
9138;SDS011;4604;48.616;9.548;2023-02-28T08:41:41;11.47;;;6.60;;
9138;SDS011;4604;48.616;9.548;2023-02-28T08:44:09;12.47;;;7.23;;
9138;SDS011;4604;48.616;9.548;2023-02-28T08:46:35;12.13;;;7.27;;
9138;SDS011;4604;48.616;9.548;2023-02-28T08:49:02;10.60;;;6.70;;
9138;SDS011;4604;48.616;9.548;2023-02-28T08:51:28;12.17;;;6.77;;
9138;SDS011;4604;48.616;9.548;2023-02-28T08:53:57;12.97;;;7.13;;
9138;SDS011;4604;48.616;9.548;2023-02-28T08:56:25;13.17;;;7.00;;
9138;SDS011;4604;48.616;9.548;2023-02-28T08:58:54;11.63;;;7.00;;
9138;SDS011;4604;48.616;9.548;2023-02-28T09:01:23;11.10;;;6.30;;
9138;SDS011;4604;48.616;9.548;2023-02-28T09:03:51;9.40;;;6.40;;
9138;SDS011;4604;48.616;9.548;2023-02-28T09:06:19;11.70;;;6.80;;
9138;SDS011;4604;48.616;9.548;2023-02-28T09:08:47;12.40;;;6.73;;
9138;SDS011;4604;48.616;9.548;2023-02-28T09:11:14;15.57;;;7.10;;
9138;SDS011;4604;48.616;9.548;2023-02-28T09:13:41;11.60;;;6.60;;
9138;SDS011;4604;48.616;9.548;2023-02-28T09:16:10;11.13;;;6.60;;
9138;SDS011;4604;48.616;9.548;2023-02-28T09:18:38;10.17;;;6.77;;
9138;SDS011;4604;48.616;9.548;2023-02-28T09:21:05;11.07;;;6.90;;
9138;SDS011;4604;48.616;9.548;2023-02-28T09:23:33;12.50;;;6.77;;
9138;SDS011;4604;48.616;9.548;2023-02-28T09:26:03;11.73;;;6.37;;
9138;SDS011;4604;48.616;9.548;2023-02-28T09:28:30;15.90;;;6.77;;
9138;SDS011;4604;48.616;9.548;2023-02-28T09:30:57;12.40;;;6.80;;
9138;SDS011;4604;48.616;9.548;2023-02-28T09:33:25;12.97;;;7.53;;
9138;SDS011;4604;48.616;9.548;2023-02-28T09:35:57;13.27;;;6.73;;
9138;SDS011;4604;48.616;9.548;2023-02-28T09:38:24;12.77;;;7.13;;
9138;SDS011;4604;48.616;9.548;2023-02-28T09:40:51;11.00;;;6.87;;
9138;SDS011;4604;48.616;9.548;2023-02-28T09:43:20;14.23;;;7.60;;
9138;SDS011;4604;48.616;9.548;2023-02-28T09:45:51;12.40;;;6.80;;
9138;SDS011;4604;48.616;9.548;2023-02-28T09:48:25;14.67;;;6.90;;
9138;SDS011;4604;48.616;9.548;2023-02-28T09:50:57;12.97;;;6.93;;
9138;SDS011;4604;48.616;9.548;2023-02-28T09:53:29;11.93;;;7.33;;
9138;SDS011;4604;48.616;9.548;2023-02-28T09:55:59;11.67;;;6.80;;
9138;SDS011;4604;48.616;9.548;2023-02-28T09:58:32;10.93;;;6.50;;
9138;SDS011;4604;48.616;9.548;2023-02-28T10:01:07;11.57;;;6.33;;
9138;SDS011;4604;48.616;9.548;2023-02-28T10:03:40;13.53;;;7.23;;
9138;SDS011;4604;48.616;9.548;2023-02-28T10:06:14;13.67;;;7.37;;
9138;SDS011;4604;48.616;9.548;2023-02-28T10:08:45;14.13;;;7.27;;
9138;SDS011;4604;48.616;9.548;2023-02-28T10:11:20;13.53;;;7.47;;
9138;SDS011;4604;48.616;9.548;2023-02-28T10:13:51;13.27;;;7.73;;
9138;SDS011;4604;48.616;9.548;2023-02-28T10:16:24;14.57;;;7.90;;
9138;SDS011;4604;48.616;9.548;2023-02-28T10:18:57;11.77;;;7.10;;
9138;SDS011;4604;48.616;9.548;2023-02-28T10:21:30;13.37;;;7.80;;
9138;SDS011;4604;48.616;9.548;2023-02-28T10:24:03;13.30;;;7.77;;
9138;SDS011;4604;48.616;9.548;2023-02-28T10:26:37;10.97;;;7.00;;
9138;SDS011;4604;48.616;9.548;2023-02-28T10:29:04;19.67;;;7.90;;
9138;SDS011;4604;48.616;9.548;2023-02-28T10:31:31;12.77;;;7.53;;
9138;SDS011;4604;48.616;9.548;2023-02-28T10:33:58;16.10;;;7.77;;
9138;SDS011;4604;48.616;9.548;2023-02-28T10:36:26;12.90;;;7.53;;
9138;SDS011;4604;48.616;9.548;2023-02-28T10:38:53;16.53;;;8.13;;
9138;SDS011;4604;48.616;9.548;2023-02-28T10:41:26;11.20;;;7.20;;
9138;SDS011;4604;48.616;9.548;2023-02-28T10:44:12;14.87;;;8.10;;
9138;SDS011;4604;48.616;9.548;2023-02-28T10:46:40;16.13;;;8.70;;
9138;SDS011;4604;48.616;9.548;2023-02-28T10:49:13;16.27;;;8.43;;
9138;SDS011;4604;48.616;9.548;2023-02-28T10:51:43;14.80;;;8.47;;
9138;SDS011;4604;48.616;9.548;2023-02-28T10:54:14;12.53;;;7.60;;
9138;SDS011;4604;48.616;9.548;2023-02-28T10:56:42;12.27;;;7.27;;
9138;SDS011;4604;48.616;9.548;2023-02-28T10:59:23;15.83;;;8.60;;
9138;SDS011;4604;48.616;9.548;2023-02-28T11:01:54;10.70;;;7.53;;
9138;SDS011;4604;48.616;9.548;2023-02-28T11:04:33;13.40;;;7.63;;
9138;SDS011;4604;48.616;9.548;2023-02-28T11:07:04;13.30;;;8.20;;
9138;SDS011;4604;48.616;9.548;2023-02-28T11:09:32;16.03;;;8.67;;
9138;SDS011;4604;48.616;9.548;2023-02-28T11:12:01;13.07;;;8.43;;
9138;SDS011;4604;48.616;9.548;2023-02-28T11:14:30;14.37;;;8.23;;
9138;SDS011;4604;48.616;9.548;2023-02-28T11:17:02;13.97;;;8.80;;
9138;SDS011;4604;48.616;9.548;2023-02-28T11:19:46;14.83;;;8.50;;
9138;SDS011;4604;48.616;9.548;2023-02-28T11:22:17;14.07;;;7.70;;
9138;SDS011;4604;48.616;9.548;2023-02-28T11:24:47;12.60;;;7.93;;
9138;SDS011;4604;48.616;9.548;2023-02-28T11:27:40;13.13;;;8.30;;
9138;SDS011;4604;48.616;9.548;2023-02-28T11:33:01;14.90;;;8.57;;
9138;SDS011;4604;48.616;9.548;2023-02-28T11:35:48;13.80;;;8.27;;
9138;SDS011;4604;48.616;9.548;2023-02-28T11:38:15;13.17;;;7.60;;
9138;SDS011;4604;48.616;9.548;2023-02-28T11:40:43;12.93;;;7.80;;
9138;SDS011;4604;48.616;9.548;2023-02-28T11:43:22;13.67;;;7.90;;
9138;SDS011;4604;48.616;9.548;2023-02-28T11:45:59;19.20;;;8.00;;
9138;SDS011;4604;48.616;9.548;2023-02-28T11:48:41;13.33;;;7.83;;
9138;SDS011;4604;48.616;9.548;2023-02-28T11:51:17;12.10;;;7.80;;
9138;SDS011;4604;48.616;9.548;2023-02-28T11:56:51;11.83;;;7.67;;
9138;SDS011;4604;48.616;9.548;2023-02-28T12:02:18;13.47;;;8.17;;
9138;SDS011;4604;48.616;9.548;2023-02-28T12:04:52;17.53;;;8.63;;
9138;SDS011;4604;48.616;9.548;2023-02-28T12:07:29;11.73;;;7.80;;
9138;SDS011;4604;48.616;9.548;2023-02-28T12:10:05;13.77;;;7.70;;
9138;SDS011;4604;48.616;9.548;2023-02-28T12:12:43;12.03;;;7.80;;
9138;SDS011;4604;48.616;9.548;2023-02-28T12:18:32;13.73;;;8.10;;
9138;SDS011;4604;48.616;9.548;2023-02-28T12:21:11;12.77;;;7.43;;
9138;SDS011;4604;48.616;9.548;2023-02-28T12:23:52;12.47;;;8.03;;
9138;SDS011;4604;48.616;9.548;2023-02-28T12:26:29;12.63;;;7.60;;
9138;SDS011;4604;48.616;9.548;2023-02-28T12:29:04;13.43;;;8.23;;
9138;SDS011;4604;48.616;9.548;2023-02-28T12:31:40;12.57;;;7.37;;
9138;SDS011;4604;48.616;9.548;2023-02-28T12:34:12;12.83;;;7.73;;
9138;SDS011;4604;48.616;9.548;2023-02-28T12:36:42;12.30;;;7.77;;
9138;SDS011;4604;48.616;9.548;2023-02-28T12:39:15;12.13;;;6.97;;
9138;SDS011;4604;48.616;9.548;2023-02-28T12:41:48;11.87;;;7.50;;
9138;SDS011;4604;48.616;9.548;2023-02-28T12:44:19;13.00;;;7.83;;
9138;SDS011;4604;48.616;9.548;2023-02-28T12:46:49;11.90;;;7.07;;
9138;SDS011;4604;48.616;9.548;2023-02-28T12:49:19;13.27;;;7.50;;
9138;SDS011;4604;48.616;9.548;2023-02-28T12:51:52;11.00;;;7.23;;
9138;SDS011;4604;48.616;9.548;2023-02-28T12:54:21;10.47;;;7.23;;
9138;SDS011;4604;48.616;9.548;2023-02-28T12:56:56;14.97;;;8.17;;
9138;SDS011;4604;48.616;9.548;2023-02-28T12:59:34;12.17;;;7.70;;
9138;SDS011;4604;48.616;9.548;2023-02-28T13:08:36;11.70;;;7.37;;
9138;SDS011;4604;48.616;9.548;2023-02-28T13:11:29;12.23;;;7.30;;
9138;SDS011;4604;48.616;9.548;2023-02-28T13:13:58;12.60;;;7.17;;
9138;SDS011;4604;48.616;9.548;2023-02-28T13:16:26;14.83;;;7.37;;
9138;SDS011;4604;48.616;9.548;2023-02-28T13:18:53;13.80;;;8.10;;
9138;SDS011;4604;48.616;9.548;2023-02-28T13:21:41;13.07;;;7.73;;
9138;SDS011;4604;48.616;9.548;2023-02-28T13:24:10;13.07;;;7.93;;
9138;SDS011;4604;48.616;9.548;2023-02-28T13:29:50;12.20;;;7.20;;
9138;SDS011;4604;48.616;9.548;2023-02-28T13:32:28;10.77;;;7.43;;
9138;SDS011;4604;48.616;9.548;2023-02-28T13:38:17;14.07;;;7.73;;
9138;SDS011;4604;48.616;9.548;2023-02-28T13:40:49;14.30;;;7.93;;
9138;SDS011;4604;48.616;9.548;2023-02-28T13:43:17;13.80;;;7.30;;
9138;SDS011;4604;48.616;9.548;2023-02-28T13:46:05;12.00;;;7.40;;
9138;SDS011;4604;48.616;9.548;2023-02-28T13:48:36;14.20;;;7.53;;
9138;SDS011;4604;48.616;9.548;2023-02-28T13:54:07;12.07;;;6.77;;
9138;SDS011;4604;48.616;9.548;2023-02-28T13:56:48;11.43;;;7.13;;
9138;SDS011;4604;48.616;9.548;2023-02-28T13:59:25;12.63;;;7.47;;
9138;SDS011;4604;48.616;9.548;2023-02-28T14:02:03;10.77;;;6.33;;
9138;SDS011;4604;48.616;9.548;2023-02-28T14:04:54;11.57;;;6.73;;
9138;SDS011;4604;48.616;9.548;2023-02-28T14:07:27;10.53;;;6.00;;
9138;SDS011;4604;48.616;9.548;2023-02-28T14:09:59;9.73;;;6.43;;
9138;SDS011;4604;48.616;9.548;2023-02-28T14:18:22;17.23;;;6.60;;
9138;SDS011;4604;48.616;9.548;2023-02-28T14:20:53;11.40;;;7.13;;
9138;SDS011;4604;48.616;9.548;2023-02-28T14:23:32;10.03;;;5.97;;
9138;SDS011;4604;48.616;9.548;2023-02-28T14:26:12;10.10;;;6.40;;
9138;SDS011;4604;48.616;9.548;2023-02-28T14:28:49;11.33;;;6.43;;
9138;SDS011;4604;48.616;9.548;2023-02-28T14:31:29;9.43;;;6.47;;
9138;SDS011;4604;48.616;9.548;2023-02-28T14:34:22;12.17;;;6.57;;
9138;SDS011;4604;48.616;9.548;2023-02-28T14:36:58;11.07;;;6.03;;
9138;SDS011;4604;48.616;9.548;2023-02-28T14:39:28;11.67;;;6.30;;
9138;SDS011;4604;48.616;9.548;2023-02-28T14:41:58;9.53;;;6.53;;
9138;SDS011;4604;48.616;9.548;2023-02-28T14:44:28;10.37;;;6.13;;
9138;SDS011;4604;48.616;9.548;2023-02-28T14:46:57;13.53;;;6.50;;
9138;SDS011;4604;48.616;9.548;2023-02-28T14:49:30;12.03;;;6.47;;
9138;SDS011;4604;48.616;9.548;2023-02-28T14:52:02;11.03;;;6.17;;
9138;SDS011;4604;48.616;9.548;2023-02-28T14:54:34;10.50;;;6.77;;
9138;SDS011;4604;48.616;9.548;2023-02-28T14:57:01;10.03;;;6.43;;
9138;SDS011;4604;48.616;9.548;2023-02-28T14:59:29;10.47;;;6.57;;
9138;SDS011;4604;48.616;9.548;2023-02-28T15:02:15;10.23;;;6.73;;
9138;SDS011;4604;48.616;9.548;2023-02-28T15:04:43;11.40;;;6.90;;
9138;SDS011;4604;48.616;9.548;2023-02-28T15:07:17;9.73;;;6.10;;
9138;SDS011;4604;48.616;9.548;2023-02-28T15:09:44;12.13;;;7.00;;
9138;SDS011;4604;48.616;9.548;2023-02-28T15:12:11;9.37;;;6.20;;
9138;SDS011;4604;48.616;9.548;2023-02-28T15:14:42;12.13;;;6.43;;
9138;SDS011;4604;48.616;9.548;2023-02-28T15:17:11;13.57;;;6.90;;
9138;SDS011;4604;48.616;9.548;2023-02-28T15:19:48;10.27;;;6.53;;
9138;SDS011;4604;48.616;9.548;2023-02-28T15:22:19;10.20;;;6.40;;
9138;SDS011;4604;48.616;9.548;2023-02-28T15:24:54;12.87;;;6.87;;
9138;SDS011;4604;48.616;9.548;2023-02-28T15:27:22;11.00;;;6.50;;
9138;SDS011;4604;48.616;9.548;2023-02-28T15:29:53;11.83;;;6.77;;
9138;SDS011;4604;48.616;9.548;2023-02-28T15:32:26;10.93;;;7.00;;
9138;SDS011;4604;48.616;9.548;2023-02-28T15:34:54;12.13;;;6.97;;
9138;SDS011;4604;48.616;9.548;2023-02-28T15:37:25;13.17;;;6.53;;
9138;SDS011;4604;48.616;9.548;2023-02-28T15:39:55;15.70;;;7.23;;
9138;SDS011;4604;48.616;9.548;2023-02-28T15:42:26;13.67;;;6.90;;
9138;SDS011;4604;48.616;9.548;2023-02-28T15:44:54;12.93;;;7.10;;
9138;SDS011;4604;48.616;9.548;2023-02-28T15:47:22;11.43;;;7.13;;
9138;SDS011;4604;48.616;9.548;2023-02-28T15:49:52;9.87;;;6.43;;
9138;SDS011;4604;48.616;9.548;2023-02-28T15:52:21;10.00;;;7.00;;
9138;SDS011;4604;48.616;9.548;2023-02-28T15:54:54;10.83;;;7.00;;
9138;SDS011;4604;48.616;9.548;2023-02-28T15:57:21;11.50;;;6.70;;
9138;SDS011;4604;48.616;9.548;2023-02-28T15:59:52;13.83;;;6.80;;
9138;SDS011;4604;48.616;9.548;2023-02-28T16:02:22;12.73;;;6.57;;
9138;SDS011;4604;48.616;9.548;2023-02-28T16:05:02;9.50;;;6.37;;
9138;SDS011;4604;48.616;9.548;2023-02-28T16:07:44;11.57;;;7.03;;
9138;SDS011;4604;48.616;9.548;2023-02-28T16:10:11;10.83;;;6.63;;
9138;SDS011;4604;48.616;9.548;2023-02-28T16:12:39;10.10;;;6.40;;